ADDS METAR Data INFO
IDs: Format: Raw Decoded Include TAF

Data at: 0753 UTC 17 Oct 2017

KFUL 170653Z AUTO 00000KT 10SM CLR 19/08 A2999 RMK AO2 SLP155 T01940078
KFUL 170553Z AUTO 00000KT 10SM CLR 21/08 A3000 RMK AO2 SLP158 T02060083 10328 20206 53007
KFUL 170453Z AUTO 00000KT 10SM CLR 22/08 A2999 RMK AO2 SLP155 T02170078
KFUL 170353Z 00000KT 10SM CLR 23/07 A2999 RMK AO2 SLP154 T02280072
KFUL 170253Z 00000KT 10SM CLR 26/04 A2998 RMK AO2 SLP151 T02560044 53011
KFUL 170153Z 26003KT 10SM CLR 28/M01 A2997 RMK AO2 SLP146 T02831011
KFUL 170053Z 27004KT 10SM CLR 31/M02 A2995 RMK AO2 SLP141 T03061017
KFUL 162353Z 29005KT 10SM CLR 33/00 A2995 RMK AO2 SLP140 T03280000 10378 20311 56008
KFUL 162253Z 29007KT 10SM CLR 35/M02 A2996 RMK AO2 SLP144 T03501022
KFUL 162153Z 21007KT 10SM CLR 37/02 A2995 RMK AO2 SLP141 T03670017
KFUL 162053Z VRB05KT 10SM CLR 37/M07 A2997 RMK AO2 SLP148 T03721072 58025
KFUL 161953Z 22004KT 10SM FEW200 37/M06 A3000 RMK AO2 SLP158 T03671061
KFUL 161853Z COR 27005KT 10SM FEW200 34/M03 A3003 RMK AO2 SLP166 T03441028
KFUL 161753Z 28003KT 10SM SCT200 32/02 A3005 RMK AO2 SLP173 T03170022 10317 20150 58001
KFUL 161653Z 00000KT 10SM CLR 27/02 A3006 RMK AO2 SLP178 T02670022
KFUL 161553Z 00000KT 10SM SCT200 23/06 A3006 RMK AO2 SLP178 T02280056
KFUL 161453Z 00000KT 10SM SCT200 18/07 A3005 RMK AO2 SLP174 T01830067 53007
KFUL 161353Z 00000KT 10SM SCT200 15/06 A3004 RMK AO2 SLP171 T01500061 $
KFUL 161253Z AUTO 00000KT 10SM CLR 16/07 A3003 RMK AO2 SLP169 T01560067 $
KFUL 161153Z AUTO 00000KT 10SM CLR 17/05 A3003 RMK AO2 SLP167 T01720050 10217 20172 58007 $
KFUL 161053Z AUTO 00000KT 10SM CLR 17/04 A3004 RMK AO2 SLP170 T01720044 $
KFUL 160953Z AUTO 00000KT 10SM CLR 17/07 A3005 RMK AO2 SLP174 T01720072 $
KFUL 160853Z AUTO 00000KT 10SM CLR 18/07 A3005 RMK AO2 SLP174 T01780067 55004 $
KFUL 160753Z AUTO 00000KT 10SM CLR 18/08 A3005 RMK AO2 SLP173 T01780078 403720128 $
KFUL 160653Z AUTO 00000KT 10SM CLR 19/08 A3005 RMK AO2 SLP175 T01890078 $
KFUL 160553Z AUTO 00000KT 10SM CLR 21/06 A3006 RMK AO2 SLP178 T02110061 10328 20200 50006 $
KFUL 160453Z AUTO 00000KT 10SM CLR 21/08 A3006 RMK AO2 SLP179 T02110078 $
KFUL 160353Z 00000KT 10SM CLR 23/07 A3005 RMK AO2 SLP175 T02280072 $
KFUL 160253Z 00000KT 10SM CLR 24/07 A3004 RMK AO2 SLP171 T02440072 53019 $
KFUL 160153Z 30005KT 10SM CLR 28/07 A3001 RMK AO2 SLP161 T02780067 $
KFUL 160053Z 00000KT 10SM CLR 31/M06 A2999 RMK AO2 SLP155 T03111061 $
KFUL 152353Z 22006KT 10SM FEW200 33/M03 A2999 RMK AO2 SLP153 T03281033 10372 20328 55006 $
KFUL 152253Z 21008KT 190V260 10SM CLR 34/00 A2998 RMK AO2 SLP150 T03440000 $
KFUL 152153Z 00000KT 10SM CLR 37/M07 A2998 RMK AO2 SLP151 T03671067 $
KFUL 152053Z VRB03KT 10SM CLR 36/M11 A3000 RMK AO2 SLP158 T03611111 58019 $